• Join FlightAware (Why Join?)
  • Login
  • US Flag 
11:51AM EST


 

Airport Tracker/Info


-or-


 

Live Flight TrackerFlight Track Log ✈ ASQ4905 ✈ 05-Aug-2014 ✈ KDTW - KOKC

Flight Track Log - Related Links

Times and Time Zones

All times are in EDT time to prevent confusion due to time zone crossing. See the ASQ4905 flight status page for this flight to view local times or setup timezone preferences in your user account.

Time Position Orientation Groundspeed Altitude Reporting Facility
EDT Latitude Longitude Course Direction KTS MPH feet Rate Location/Type
08:12PM 42.2292 -83.3647 354° North 160 184 1,300  Level Cleveland Center
08:13PM 42.2644 -83.3697 354° North 205 236 2,500 1,620 Climbing Cleveland Center
08:14PM 42.2956 -83.3761 351° North 215 247 3,300 1,740 Climbing Cleveland Center
08:14PM 42.3231 -83.3978 330° Northwest 265 305 4,300 2,460 Climbing Cleveland Center
08:15PM 42.3522 -83.4292 322° Northwest 253 291 5,900 3,000 Climbing Cleveland Center
08:15PM 42.3647 -83.4828 288° West 276 318 7,400 2,640 Climbing Cleveland Center
08:16PM 42.3642 -83.5289 269° West 276 318 8,600 2,220 Climbing Cleveland Center
08:17PM 42.3178 -83.6072 231° Southwest 292 336 10,900 1,800 Climbing Cleveland Center
08:18PM 42.2161 -83.6633 202° Southwest 354 407 12,400 1,680 Climbing Cleveland Center
08:19PM 42.1156 -83.6875 190° South 369 425 14,400 1,740 Climbing Cleveland Center
08:20PM 42.0103 -83.7133 190° South 383 441 16,100 1,680 Climbing Cleveland Center
08:21PM 41.8986 -83.7800 204° Southwest 395 455 17,900 1,620 Climbing Cleveland Center
08:22PM 41.8067 -83.8339 204° Southwest 398 458 19,500 1,740 Climbing Cleveland Center
08:23PM 41.6828 -83.9053 203° Southwest 403 464 21,500 1,740 Climbing Cleveland Center
08:24PM 41.5789 -83.9672 204° Southwest 405 466 23,100 1,500 Climbing Cleveland Center
08:25PM 41.4772 -84.0389 208° Southwest 413 475 24,600 1,200 Climbing Cleveland Center
08:26PM 41.4231 -84.1683 241° Southwest 397 457 25,700 1,020 Climbing Cleveland Center
08:27PM 41.3589 -84.3158 240° Southwest 407 468 26,800 960 Climbing Cleveland Center
08:28PM 41.3008 -84.4519 240° Southwest 417 480 27,800 540 Climbing Cleveland Center
08:29PM 41.2411 -84.5894 240° Southwest 426 490 28,000 60 Climbing Cleveland Center
08:30PM 41.2033 -84.6744 239° Southwest 437 503 28,000 300 Level Chicago Center
08:31PM 41.1275 -84.8522 241° Southwest 456 525 28,600 780 Climbing Chicago Center
08:32PM 41.0733 -85.0011 244° Southwest 452 520 29,700 960 Climbing Chicago Center
08:33PM 41.0192 -85.1481 244° Southwest 445 512 30,700 960 Climbing Chicago Center
08:34PM 40.9644 -85.2933 244° Southwest 443 510 31,700 960 Climbing Chicago Center
08:35PM 40.9119 -85.4367 244° Southwest 436 502 32,700 960 Climbing Chicago Center
08:36PM 40.8586 -85.5789 244° Southwest 433 498 33,700 960 Climbing Chicago Center
08:37PM 40.8072 -85.7172 244° Southwest 424 488 34,700 960 Climbing Chicago Center
08:38PM 40.7456 -85.8797 243° Southwest 415 478 35,800 600 Climbing Chicago Center
08:39PM 40.6933 -86.0161 243° Southwest 415 478 36,000 60 Climbing Chicago Center
08:40PM 40.6461 -86.1403 243° Southwest 424 488 36,000 420 Level Chicago Center
08:41PM 40.5825 -86.3119 244° Southwest 437 503 36,900 480 Climbing Chicago Center
08:42PM 40.5286 -86.4508 243° Southwest 431 496 37,000  Climbing Chicago Center
08:43PM 40.4739 -86.5922 243° Southwest 434 499 37,000  Level Chicago Center
08:44PM 40.4203 -86.7314 243° Southwest 433 498 37,000  Level Chicago Center
08:45PM 40.3650 -86.8711 243° Southwest 433 498 37,000  Level Chicago Center
08:46PM 40.2994 -87.0383 243° Southwest 434 499 37,000  Level Chicago Center
08:47PM 40.2447 -87.1761 243° Southwest 431 496 37,000  Level Chicago Center
08:48PM 40.1894 -87.3161 243° Southwest 432 497 37,000  Level Chicago Center
08:49PM 40.1358 -87.4517 243° Southwest 425 489 37,000  Level Chicago Center
08:52PM 40.0194 -87.7917 246° West 431 496 37,000  Level Indianapolis Center
08:53PM 39.9750 -87.9356 248° West 430 495 37,000  Level Indianapolis Center
08:54PM 39.9306 -88.0808 248° West 429 494 37,000  Level Chicago Center
08:55PM 39.8856 -88.2217 247° West 430 495 37,000  Level Chicago Center
08:56PM 39.8331 -88.3614 244° Southwest 429 494 37,000  Level Chicago Center
08:57PM 39.7708 -88.4992 240° Southwest 439 505 37,000  Level Chicago Center
08:58PM 39.7092 -88.6383 240° Southwest 442 509 37,000  Level Chicago Center
08:59PM 39.6467 -88.7756 239° Southwest 440 506 37,000 480 Level Kansas City Center
09:00PM 39.5728 -88.9383 240° Southwest 439 505 38,000 480 Climbing Kansas City Center
09:01PM 39.5117 -89.0739 240° Southwest 437 503 38,000  Level Kansas City Center
09:02PM 39.4497 -89.2117 240° Southwest 438 504 38,000  Level Kansas City Center
09:03PM 39.3847 -89.3544 240° Southwest 440 506 38,000  Level Kansas City Center
09:04PM 39.3219 -89.4897 239° Southwest 440 506 38,000  Level Kansas City Center
09:05PM 39.2608 -89.6239 240° Southwest 440 506 38,000  Level Kansas City Center
09:06PM 39.1992 -89.7567 239° Southwest 436 502 38,000  Level Kansas City Center
09:07PM 39.1267 -89.9172 240° Southwest 430 495 38,000  Level Kansas City Center
09:08PM 39.0653 -90.0444 238° Southwest 431 496 38,000  Level Kansas City Center
09:09PM 39.0036 -90.1789 239° Southwest 431 496 38,000  Level Kansas City Center
09:10PM 38.9414 -90.3083 238° Southwest 432 497 38,000  Level Kansas City Center
09:11PM 38.8778 -90.4486 240° Southwest 431 496 38,000  Level Kansas City Center
09:12PM 38.8150 -90.5783 238° Southwest 431 496 38,000  Level Kansas City Center
09:13PM 38.7442 -90.7144 236° Southwest 428 493 38,000  Level Kansas City Center
09:14PM 38.6797 -90.8408 237° Southwest 429 494 38,000  Level Kansas City Center
09:15PM 38.6153 -90.9675 237° Southwest 428 493 38,000  Level Kansas City Center
09:17PM 38.5517 -91.0928 237° Southwest 424 488 38,000  Level Kansas City Center
09:18PM 38.4872 -91.2183 237° Southwest 424 488 38,000  Level Kansas City Center
09:19PM 38.4075 -91.3719 237° Southwest 430 495 38,000  Level Kansas City Center
09:20PM 38.3483 -91.4822 236° Southwest 427 491 38,000  Level Kansas City Center
09:21PM 38.2711 -91.6317 237° Southwest 424 488 38,000  Level Kansas City Center
09:22PM 38.2047 -91.7572 236° Southwest 425 489 38,000  Level Kansas City Center
09:23PM 38.1397 -91.8808 236° Southwest 423 487 38,000  Level Kansas City Center
09:24PM 38.0819 -92.0119 241° Southwest 428 493 38,000  Level Kansas City Center
09:25PM 38.0386 -92.1642 250° West 420 483 38,000  Level Kansas City Center
09:26PM 37.9978 -92.3053 250° West 423 487 38,000  Level Kansas City Center
09:27PM 37.9583 -92.4453 250° West 428 493 38,000  Level Kansas City Center
09:28PM 37.9178 -92.5858 250° West 427 491 38,000  Level Kansas City Center
09:29PM 37.8772 -92.7256 250° West 427 491 38,000  Level Kansas City Center
09:30PM 37.8339 -92.8717 249° West 426 490 38,000  Level Kansas City Center
09:31PM 37.7933 -93.0106 250° West 426 490 38,000  Level Kansas City Center
09:32PM 37.7517 -93.1497 249° West 426 490 38,000  Level Kansas City Center
09:33PM 37.7017 -93.3181 249° West 425 489 38,000  Level Kansas City Center
09:34PM 37.6603 -93.4586 250° West 425 489 38,000  Level Kansas City Center
09:35PM 37.6183 -93.5997 249° West 426 490 38,000  Level Kansas City Center
09:36PM 37.5764 -93.7397 249° West 427 491 38,000  Level Kansas City Center
09:37PM 37.5339 -93.8828 250° West 431 496 38,000  Level Kansas City Center
09:38PM 37.4917 -94.0233 249° West 429 494 38,000  Level Kansas City Center
09:39PM 37.4494 -94.1600 249° West 424 488 38,000  Level Kansas City Center
09:40PM 37.3981 -94.3303 249° West 427 491 38,000  Level Kansas City Center
09:41PM 37.3539 -94.4703 248° West 429 494 38,000  Level Kansas City Center
09:42PM 37.3114 -94.6119 249° West 430 495 38,000  Level Kansas City Center
09:43PM 37.2669 -94.7525 248° West 431 496 38,000  Level Kansas City Center
09:44PM 37.2211 -94.8917 248° West 431 496 38,000  Level Kansas City Center
09:45PM 37.1775 -95.0317 249° West 431 496 38,000  Level Kansas City Center
09:46PM 37.1331 -95.1731 249° West 432 497 38,000  Level Kansas City Center
09:47PM 37.0803 -95.3417 249° West 433 498 38,000  Level Kansas City Center
09:48PM 37.0367 -95.4825 249° West 433 498 38,000 -240 Level Kansas City Center
09:49PM 36.9911 -95.6231 248° West 434 499 37,600 -480 Descending Kansas City Center
09:50PM 36.9439 -95.7667 248° West 443 510 37,100 -480 Descending Kansas City Center
09:51PM 36.8847 -95.9069 242° Southwest 455 524 36,600 -540 Descending Kansas City Center
09:53PM 36.8050 -96.0333 232° Southwest 463 533 36,100 -1,440 Descending Kansas City Center
09:54PM 36.7086 -96.1822 231° Southwest 463 533 33,700 -2,340 Descending Kansas City Center
09:55PM 36.6294 -96.3064 232° Southwest 463 533 31,400 -2,400 Descending Kansas City Center
09:56PM 36.5511 -96.4269 231° Southwest 455 524 29,000 -2,340 Descending Kansas City Center
09:57PM 36.4756 -96.5428 231° Southwest 440 506 26,600 -1,680 Descending Kansas City Center
09:58PM 36.4028 -96.6519 230° Southwest 419 482 25,500 -1,380 Descending Kansas City Center
09:59PM 36.3292 -96.7642 231° Southwest 400 460 23,800 -1,920 Descending Kansas City Center
10:00PM 36.2361 -96.8464 215° Southwest 409 471 21,600 -2,220 Descending Kansas City Center
10:01PM 36.1442 -96.9322 217° Southwest 413 475 19,300 -2,220 Descending Kansas City Center
10:02PM 36.0503 -97.0167 216° Southwest 414 476 17,100 -2,220 Descending Kansas City Center
10:03PM 35.9561 -97.0994 215° Southwest 418 481 14,800 -2,520 Descending Kansas City Center
10:03PM 35.9042 -97.1531 220° Southwest 414 476 13,400 -2,640 Descending Fort Worth Center
10:04PM 35.8664 -97.1981 224° Southwest 384 442 12,300 -1,680 Descending Fort Worth Center
10:04PM 35.8339 -97.2425 228° Southwest 366 421 11,700 -1,440 Descending Fort Worth Center
10:05PM 35.7969 -97.2881 225° Southwest 315 362 10,900 -1,260 Descending Fort Worth Center
10:05PM 35.7750 -97.3211 231° Southwest 315 362 10,400 -1,200 Descending Fort Worth Center
10:06PM 35.7514 -97.3503 225° Southwest 284 327 9,800 -1,980 Descending Fort Worth Center
10:06PM 35.7114 -97.4053 228° Southwest 282 325 8,400 -2,040 Descending Fort Worth Center
10:07PM 35.6953 -97.4272 228° Southwest 275 316 7,800 -1,800 Descending Fort Worth Center
10:08PM 35.6417 -97.4933 225° Southwest 272 313 6,100 -1,740 Descending Fort Worth Center
10:08PM 35.6019 -97.5422 225° Southwest 268 308 4,700 -1,800 Descending Fort Worth Center
10:09PM 35.5900 -97.5567 225° Southwest 265 305 4,300 -1,020 Descending Fort Worth Center
10:09PM 35.5439 -97.5869 208° Southwest 249 287 3,700 -840 Descending Fort Worth Center
10:10PM 35.5306 -97.5900 191° South 226 260 3,500 -720 Descending Fort Worth Center
10:10PM 35.4903 -97.5892 179° South 186 214 3,000 -720 Descending Fort Worth Center
10:11PM 35.4778 -97.5889 179° South 150 173 2,700 -780 Descending Fort Worth Center
10:12PM 35.4494 -97.5892 180° South 136 157 2,200 -660 Descending Fort Worth Center
10:12PM 35.4336 -97.5889 179° South 114 131 1,900 -600 Descending Fort Worth Center
10:13PM 35.4153 -97.5894 181° South 127 146 1,600 -600 Descending Fort Worth Center